createdAt,value
2018-10-04T00:00:12.071Z,18.8
2018-10-04T00:01:01.037Z,18.8
2018-10-04T00:01:51.323Z,18.8
2018-10-04T00:02:41.371Z,18.8
2018-10-04T00:03:31.791Z,18.8
2018-10-04T00:04:22.091Z,18.8
2018-10-04T00:05:12.451Z,18.8
2018-10-04T00:06:01.681Z,18.8
2018-10-04T00:06:51.736Z,18.8
2018-10-04T00:26:02.902Z,18.8
2018-10-04T00:26:53.559Z,18.8
2018-10-04T00:28:32.781Z,18.8
2018-10-04T00:29:23.630Z,18.8
2018-10-04T01:07:45.933Z,18.6
2018-10-04T01:08:36.575Z,18.6
2018-10-04T01:09:26.644Z,18.6
2018-10-04T01:10:16.947Z,18.6
2018-10-04T01:11:07.547Z,18.6
2018-10-04T01:11:55.535Z,18.6
2018-10-04T01:12:48.169Z,18.6
2018-10-04T01:14:26.959Z,18.6
2018-10-04T01:15:15.652Z,18.6
2018-10-04T01:16:07.927Z,18.6
2018-10-04T01:16:56.797Z,18.6
2018-10-04T01:17:47.162Z,18.6
2018-10-04T01:18:37.509Z,18.6
2018-10-04T01:19:27.288Z,18.6
2018-10-04T01:20:18.212Z,18.6
2018-10-04T01:21:07.464Z,18.6
2018-10-04T01:21:56.920Z,18.6
2018-10-04T01:22:48.719Z,18.6
2018-10-04T01:23:37.050Z,18.6
2018-10-04T01:24:27.952Z,18.6
2018-10-04T01:25:17.747Z,18.6
2018-10-04T01:26:07.085Z,18.6
2018-10-04T01:26:58.451Z,18.6
2018-10-04T01:27:48.213Z,18.6
2018-10-04T01:28:38.497Z,18.6
2018-10-04T01:29:28.069Z,18.6
2018-10-04T01:30:18.967Z,18.6
2018-10-04T01:31:07.311Z,18.6
2018-10-04T01:31:59.621Z,18.6
2018-10-04T01:32:49.143Z,18.6
2018-10-04T01:33:37.741Z,18.6
2018-10-04T01:34:29.000Z,18.6
2018-10-04T01:35:18.261Z,18.6
2018-10-04T01:36:08.243Z,18.6
2018-10-04T01:36:59.188Z,18.6
2018-10-04T01:37:48.926Z,18.6
2018-10-04T01:38:38.707Z,18.6
2018-10-04T01:39:28.805Z,18.6
2018-10-04T01:40:18.517Z,18.6
2018-10-04T01:41:09.797Z,18.6
2018-10-04T01:41:58.585Z,18.6
2018-10-04T01:42:48.477Z,18.6
2018-10-04T01:43:39.672Z,18.6
2018-10-04T01:44:29.901Z,18.6
2018-10-04T01:45:19.188Z,18.6
2018-10-04T01:46:09.546Z,18.6
2018-10-04T01:46:59.594Z,18.6
2018-10-04T01:47:49.369Z,18.6
2018-10-04T01:48:39.701Z,18.6
2018-10-04T01:49:29.254Z,18.6
2018-10-04T01:50:18.855Z,18.6
2018-10-04T01:51:09.737Z,18.6
2018-10-04T01:51:59.224Z,18.6
2018-10-04T01:52:49.577Z,18.6
2018-10-04T01:53:40.672Z,18.6
2018-10-04T01:54:30.227Z,18.6
2018-10-04T01:55:19.712Z,18.6
2018-10-04T01:56:09.022Z,18.6
2018-10-04T01:57:00.934Z,18.6
2018-10-04T01:57:49.632Z,18.6
2018-10-04T01:58:40.207Z,18.6
2018-10-04T01:59:30.544Z,18.6
2018-10-04T02:00:20.301Z,18.6
2018-10-04T02:01:10.099Z,18.6
2018-10-04T02:02:00.096Z,18.6
2018-10-04T02:02:50.514Z,18.6
2018-10-04T02:03:41.391Z,18.6
2018-10-04T02:04:31.420Z,18.6
2018-10-04T02:05:20.447Z,18.6
2018-10-04T02:06:10.818Z,18.6
2018-10-04T02:06:59.914Z,18.6
2018-10-04T02:07:50.367Z,18.6
2018-10-04T02:08:40.708Z,18.6
2018-10-04T02:09:30.489Z,18.6
2018-10-04T02:10:21.106Z,18.6
2018-10-04T02:11:10.329Z,18.6
2018-10-04T02:12:01.195Z,18.6
2018-10-04T02:12:50.741Z,18.6
2018-10-04T02:13:41.028Z,18.6
2018-10-04T02:14:31.878Z,18.6
2018-10-04T02:15:21.158Z,18.6
2018-10-04T02:16:10.699Z,18.6
2018-10-04T02:17:01.961Z,18.6
2018-10-04T02:17:51.633Z,18.6
2018-10-04T02:18:40.957Z,18.6
2018-10-04T02:19:31.028Z,18.6
2018-10-04T02:20:21.976Z,18.6
2018-10-04T02:21:10.361Z,18.6
2018-10-04T02:22:02.197Z,18.6
2018-10-04T02:22:51.002Z,18.5
2018-10-04T02:23:41.238Z,18.6
2018-10-04T02:24:32.488Z,18.6
2018-10-04T02:25:21.173Z,18.5
2018-10-04T02:26:11.281Z,18.6
2018-10-04T02:27:02.299Z,18.5
2018-10-04T02:27:52.055Z,18.5
2018-10-04T02:28:41.466Z,18.5
2018-10-04T02:29:31.203Z,18.5
2018-10-04T02:30:21.343Z,18.5
2018-10-04T02:31:11.993Z,18.6
2018-10-04T02:32:01.679Z,18.5
2018-10-04T02:32:52.356Z,18.5
2018-10-04T02:33:42.319Z,18.5
2018-10-04T02:34:32.388Z,18.5
2018-10-04T02:35:21.840Z,18.5
2018-10-04T02:36:11.976Z,18.5
2018-10-04T02:37:01.779Z,18.5
2018-10-04T02:37:52.735Z,18.5
2018-10-04T02:38:42.423Z,18.5
2018-10-04T02:39:33.320Z,18.5
2018-10-04T02:40:22.857Z,18.5
2018-10-04T02:41:12.932Z,18.5
2018-10-04T02:42:02.971Z,18.5
2018-10-04T02:42:52.912Z,18.5
2018-10-04T02:43:43.090Z,18.5
2018-10-04T02:44:33.103Z,18.5
2018-10-04T02:45:23.990Z,18.5
2018-10-04T02:46:12.402Z,18.5
2018-10-04T02:47:02.949Z,18.5
2018-10-04T02:47:53.302Z,18.5
2018-10-04T02:48:43.933Z,18.5
2018-10-04T02:49:32.949Z,18.5
2018-10-04T02:50:23.004Z,18.5
2018-10-04T02:51:12.988Z,18.5
2018-10-04T02:52:03.444Z,18.5
2018-10-04T02:52:53.449Z,18.5
2018-10-04T02:53:44.332Z,18.5
2018-10-04T02:54:33.319Z,18.4
2018-10-04T02:55:23.886Z,18.5
2018-10-04T02:56:13.681Z,18.5
2018-10-04T02:57:03.843Z,18.5
2018-10-04T02:57:54.437Z,18.5
2018-10-04T02:58:43.216Z,18.5
2018-10-04T02:59:34.301Z,18.5
2018-10-04T03:00:25.406Z,18.5
2018-10-04T03:01:14.691Z,18.4
2018-10-04T03:02:04.741Z,18.4
2018-10-04T03:02:54.258Z,18.4
2018-10-04T03:03:43.928Z,18.5
2018-10-04T03:04:33.494Z,18.5
2018-10-04T03:05:24.728Z,18.4
2018-10-04T03:06:14.438Z,18.4
2018-10-04T03:07:04.343Z,18.4
2018-10-04T03:07:55.131Z,18.4
2018-10-04T03:08:44.188Z,18.4
2018-10-04T03:09:34.380Z,18.4
2018-10-04T03:10:25.089Z,18.4
2018-10-04T03:11:15.598Z,18.4
2018-10-04T03:12:04.856Z,18.4
2018-10-04T03:12:54.657Z,18.4
2018-10-04T03:13:44.973Z,18.4
2018-10-04T03:14:35.665Z,18.4
2018-10-04T03:15:25.737Z,18.4
2018-10-04T03:16:15.995Z,18.4
2018-10-04T03:17:04.967Z,18.4
2018-10-04T03:17:55.332Z,18.4
2018-10-04T03:18:44.692Z,18.4
2018-10-04T03:19:36.495Z,18.4
2018-10-04T03:20:26.649Z,18.4
2018-10-04T03:21:15.240Z,18.4
2018-10-04T03:22:05.912Z,18.4
2018-10-04T03:22:55.717Z,18.4
2018-10-04T03:23:45.676Z,18.4
2018-10-04T03:24:36.934Z,18.4
2018-10-04T03:25:25.533Z,18.4
2018-10-04T03:26:16.449Z,18.4
2018-10-04T03:27:06.616Z,18.4
2018-10-04T03:27:56.198Z,18.4
2018-10-04T03:28:46.017Z,18.4
2018-10-04T03:29:36.680Z,18.4
2018-10-04T03:30:28.283Z,18.4
2018-10-04T03:31:15.759Z,18.4
2018-10-04T03:32:06.923Z,18.4
2018-10-04T03:32:56.947Z,18.4
2018-10-04T03:33:47.338Z,18.4
2018-10-04T03:34:37.666Z,18.4
2018-10-04T03:35:28.256Z,18.4
2018-10-04T03:36:17.102Z,18.4
2018-10-04T03:37:07.207Z,18.4
2018-10-04T03:37:57.288Z,18.4
2018-10-04T03:38:47.331Z,18.4
2018-10-04T03:39:36.795Z,18.4
2018-10-04T03:40:26.941Z,18.4
2018-10-04T03:41:18.046Z,18.4
2018-10-04T03:42:07.581Z,18.4
2018-10-04T03:42:57.591Z,18.4
2018-10-04T03:43:47.150Z,18.4
2018-10-04T03:44:38.064Z,18.4
2018-10-04T03:45:27.796Z,18.4
2018-10-04T03:46:17.712Z,18.4
2018-10-04T03:47:06.537Z,18.4
2018-10-04T03:47:58.517Z,18.4
2018-10-04T03:48:47.895Z,18.4
2018-10-04T03:49:37.555Z,18.4
2018-10-04T03:50:27.912Z,18.3
2018-10-04T03:51:18.530Z,18.3
2018-10-04T03:52:07.225Z,18.3
2018-10-04T03:52:58.201Z,18.3
2018-10-04T03:53:48.590Z,18.3
2018-10-04T03:54:37.787Z,18.3
2018-10-04T03:55:28.392Z,18.3
2018-10-04T03:56:18.060Z,18.3
2018-10-04T03:57:07.915Z,18.3
2018-10-04T03:57:58.266Z,18.3
2018-10-04T03:58:48.669Z,18.3
2018-10-04T03:59:38.266Z,18.3
2018-10-04T04:00:28.092Z,18.3
2018-10-04T04:01:18.767Z,18.3
2018-10-04T04:02:09.090Z,18.3
2018-10-04T04:02:57.683Z,18.3
2018-10-04T04:03:48.639Z,18.2
2018-10-04T04:04:39.277Z,18.2
2018-10-04T04:05:29.145Z,18.3
2018-10-04T04:06:19.139Z,18.2
2018-10-04T04:07:08.609Z,18.2
2018-10-04T04:07:58.890Z,18.2
2018-10-04T04:08:49.596Z,18.2
2018-10-04T04:09:39.926Z,18.2
2018-10-04T04:10:30.222Z,18.2
2018-10-04T04:11:18.866Z,18.2
2018-10-04T04:12:10.692Z,18.2
2018-10-04T04:13:00.633Z,18.2
2018-10-04T04:13:49.871Z,18.2
2018-10-04T04:14:39.916Z,18.2
2018-10-04T04:15:29.951Z,18.2
2018-10-04T04:16:20.299Z,18.2
2018-10-04T04:17:10.691Z,18.2
2018-10-04T04:18:00.112Z,18.2
2018-10-04T04:18:50.483Z,18.2
2018-10-04T04:19:41.459Z,18.1
2018-10-04T04:20:30.896Z,18.2
2018-10-04T04:21:20.427Z,18.1
2018-10-04T04:22:11.737Z,18.1
2018-10-04T04:23:01.713Z,18.1
2018-10-04T04:23:50.922Z,18.1
2018-10-04T04:24:40.866Z,18.2
2018-10-04T04:25:31.574Z,18.1
2018-10-04T04:26:21.388Z,18.1
2018-10-04T04:27:11.240Z,18.2
2018-10-04T04:28:01.149Z,18.1
2018-10-04T04:28:50.675Z,18.1
2018-10-04T04:29:41.877Z,18.1
2018-10-04T04:30:31.193Z,18.1
2018-10-04T04:31:21.180Z,18.1
2018-10-04T04:32:12.345Z,18.1
2018-10-04T04:33:01.581Z,18.1
2018-10-04T04:33:50.230Z,18.1
2018-10-04T04:34:41.932Z,18.1
2018-10-04T04:35:31.458Z,18.1
2018-10-04T04:36:22.050Z,18.1
2018-10-04T04:54:29.414Z,18
2018-10-04T04:55:18.018Z,18.1
2018-10-04T04:56:08.371Z,18.1
2018-10-04T04:56:58.494Z,18.1
2018-10-04T04:57:48.226Z,18.1
2018-10-04T04:58:37.698Z,18.1
2018-10-04T04:59:28.798Z,18
2018-10-04T05:00:18.096Z,18.1
2018-10-04T05:01:08.463Z,18
2018-10-04T05:01:59.090Z,18
2018-10-04T05:02:49.453Z,18
2018-10-04T05:03:37.840Z,18
2018-10-04T05:04:29.548Z,18.1
2018-10-04T05:05:18.706Z,18
2018-10-04T05:06:11.125Z,18
2018-10-04T05:06:59.790Z,18
2018-10-04T05:07:48.122Z,18
2018-10-04T05:08:39.350Z,18
2018-10-04T05:09:29.407Z,18
2018-10-04T05:10:19.160Z,18
2018-10-04T05:11:09.392Z,18
2018-10-04T05:11:59.839Z,18
2018-10-04T05:12:49.275Z,18
2018-10-04T05:13:39.627Z,17.9
2018-10-04T05:14:30.040Z,18
2018-10-04T05:15:19.485Z,18
2018-10-04T05:16:11.158Z,18
2018-10-04T05:16:59.597Z,17.9
2018-10-04T05:17:48.254Z,18
2018-10-04T05:18:40.020Z,17.9
2018-10-04T05:19:30.068Z,17.9
2018-10-04T05:20:19.568Z,17.9
2018-10-04T05:21:10.788Z,17.9
2018-10-04T05:21:59.732Z,17.9
2018-10-04T05:22:50.676Z,17.9
2018-10-04T05:23:40.924Z,17.9
2018-10-04T05:24:30.165Z,17.9
2018-10-04T05:25:21.040Z,17.9
2018-10-04T05:26:10.011Z,17.9
2018-10-04T05:27:00.968Z,17.9
2018-10-04T05:27:51.510Z,17.9
2018-10-04T05:28:40.768Z,17.9
2018-10-04T05:29:31.665Z,17.9
2018-10-04T05:30:20.907Z,17.9
2018-10-04T05:31:09.588Z,17.9
2018-10-04T05:32:01.542Z,17.9
2018-10-04T05:32:50.797Z,17.9
2018-10-04T05:33:41.417Z,17.9
2018-10-04T05:34:30.887Z,17.9
2018-10-04T05:35:21.032Z,17.9
2018-10-04T05:36:11.048Z,17.9
2018-10-04T05:37:03.889Z,17.9
2018-10-04T05:37:51.413Z,17.9
2018-10-04T05:38:41.219Z,17.9
2018-10-04T05:39:31.589Z,17.9
2018-10-04T05:40:22.090Z,17.9
2018-10-04T05:41:12.247Z,17.9
2018-10-04T05:42:01.432Z,17.9
2018-10-04T05:42:52.308Z,17.9
2018-10-04T05:43:40.742Z,17.9
2018-10-04T05:44:31.605Z,17.9
2018-10-04T05:45:24.016Z,17.9
2018-10-04T05:46:11.769Z,17.9
2018-10-04T05:47:02.120Z,17.9
2018-10-04T05:47:52.684Z,17.9
2018-10-04T05:48:42.222Z,17.9
2018-10-04T05:49:32.064Z,17.9
2018-10-04T05:50:22.774Z,17.9
2018-10-04T05:51:13.006Z,17.9
2018-10-04T05:52:02.779Z,17.9
2018-10-04T05:52:53.977Z,17.9
2018-10-04T05:53:42.957Z,17.9
2018-10-04T05:54:32.404Z,17.9
2018-10-04T05:55:23.214Z,17.9
2018-10-04T05:56:13.101Z,17.9
2018-10-04T05:57:03.142Z,17.9
2018-10-04T05:57:52.405Z,17.9
2018-10-04T05:58:43.246Z,17.9
2018-10-04T05:59:33.906Z,17.9
2018-10-04T06:00:23.103Z,17.9
2018-10-04T06:01:12.822Z,17.9
2018-10-04T06:02:03.753Z,17.9
2018-10-04T06:02:53.088Z,17.9
2018-10-04T06:03:43.602Z,17.9
2018-10-04T06:04:34.015Z,17.9
2018-10-04T06:05:24.935Z,17.9
2018-10-04T06:06:14.092Z,17.9
2018-10-04T06:07:03.035Z,17.9
2018-10-04T06:07:53.614Z,17.9
2018-10-04T06:08:42.865Z,17.9
2018-10-04T06:09:33.232Z,17.9
2018-10-04T06:10:23.859Z,17.9
2018-10-04T06:11:13.642Z,17.9
2018-10-04T06:12:04.252Z,17.8
2018-10-04T06:12:54.286Z,17.8
2018-10-04T06:13:44.047Z,17.8
2018-10-04T06:14:32.995Z,17.8
2018-10-04T06:15:26.554Z,17.9
2018-10-04T06:16:14.201Z,17.8
2018-10-04T06:17:04.059Z,17.8
2018-10-04T06:17:54.399Z,17.9
2018-10-04T06:18:44.413Z,17.8
2018-10-04T06:19:34.739Z,17.9
2018-10-04T06:20:25.106Z,17.8
2018-10-04T06:21:14.887Z,17.9
2018-10-04T06:22:07.015Z,17.8
2018-10-04T06:22:54.439Z,17.8
2018-10-04T06:23:44.519Z,17.8
2018-10-04T06:24:35.148Z,17.8
2018-10-04T06:25:25.293Z,17.9
2018-10-04T06:26:15.548Z,17.8
2018-10-04T06:27:05.406Z,17.9
2018-10-04T06:27:54.866Z,17.8
2018-10-04T06:28:46.750Z,17.8
2018-10-04T06:29:35.341Z,17.8
2018-10-04T06:30:25.251Z,17.8
2018-10-04T06:31:15.638Z,17.8
2018-10-04T06:32:05.638Z,17.8
2018-10-04T06:32:55.240Z,17.8
2018-10-04T06:33:45.544Z,17.8
2018-10-04T06:34:35.376Z,17.8
2018-10-04T06:35:28.193Z,17.8
2018-10-04T06:36:15.733Z,17.8
2018-10-04T06:37:06.698Z,17.8
2018-10-04T06:37:55.821Z,17.8
2018-10-04T06:38:45.638Z,17.9
2018-10-04T06:39:36.305Z,17.8
2018-10-04T06:40:26.138Z,17.8
2018-10-04T06:41:16.105Z,17.8
2018-10-04T06:42:06.501Z,17.8
2018-10-04T06:42:55.909Z,17.9
2018-10-04T06:43:45.513Z,17.8
2018-10-04T06:44:36.626Z,17.8
2018-10-04T06:45:25.590Z,17.8
2018-10-04T06:46:16.758Z,17.8
2018-10-04T06:47:05.981Z,17.8
2018-10-04T06:47:56.306Z,17.8
2018-10-04T06:48:46.387Z,17.8
2018-10-04T06:49:36.688Z,17.8
2018-10-04T06:50:27.482Z,17.8
2018-10-04T06:51:16.293Z,17.8
2018-10-04T06:52:06.935Z,17.8
2018-10-04T06:52:56.630Z,17.8
2018-10-04T06:53:46.752Z,17.8
2018-10-04T06:54:36.812Z,17.8
2018-10-04T06:55:26.842Z,17.8
2018-10-04T06:56:16.791Z,17.8
2018-10-04T06:57:07.544Z,17.8
2018-10-04T06:57:59.195Z,17.8
2018-10-04T06:58:47.182Z,17.8
2018-10-04T06:59:37.719Z,17.8
2018-10-04T07:00:27.482Z,17.8
2018-10-04T07:01:17.332Z,17.8
2018-10-04T07:02:07.487Z,17.8
2018-10-04T07:02:58.286Z,17.8
2018-10-04T07:03:49.131Z,17.8
2018-10-04T07:04:37.530Z,17.8
2018-10-04T07:05:27.627Z,17.8
2018-10-04T07:06:18.555Z,17.8
2018-10-04T07:07:07.549Z,17.8
2018-10-04T07:07:58.654Z,17.8
2018-10-04T07:08:48.142Z,17.8
2018-10-04T07:09:38.219Z,17.8
2018-10-04T07:10:27.770Z,17.8
2018-10-04T07:11:18.676Z,17.8
2018-10-04T07:12:08.711Z,17.8
2018-10-04T07:12:57.626Z,17.8
2018-10-04T07:13:48.233Z,17.9
2018-10-04T07:14:38.361Z,17.8
2018-10-04T07:15:28.099Z,17.8
2018-10-04T07:16:17.860Z,17.8
2018-10-04T07:17:07.976Z,17.8
2018-10-04T07:17:58.096Z,17.8
2018-10-04T07:18:48.314Z,17.8
2018-10-04T07:19:38.366Z,17.9
2018-10-04T07:20:29.466Z,17.8
2018-10-04T07:21:19.379Z,17.8
2018-10-04T07:22:09.679Z,17.8
2018-10-04T07:22:59.171Z,17.8
2018-10-04T07:23:49.564Z,17.8
2018-10-04T07:24:39.598Z,17.8
2018-10-04T07:25:29.433Z,17.8
2018-10-04T07:26:18.593Z,17.8
2018-10-04T07:27:09.530Z,17.9
2018-10-04T07:27:59.872Z,17.8
2018-10-04T07:28:49.695Z,17.8
2018-10-04T07:29:39.173Z,17.8
2018-10-04T07:30:29.473Z,17.8
2018-10-04T07:31:20.051Z,17.9
2018-10-04T07:32:09.895Z,17.8
2018-10-04T07:33:00.266Z,17.8
2018-10-04T07:33:50.625Z,17.8
2018-10-04T07:34:40.438Z,17.9
2018-10-04T07:35:29.837Z,17.8
2018-10-04T07:36:19.933Z,17.9
2018-10-04T07:37:11.614Z,17.8
2018-10-04T07:37:59.710Z,17.9
2018-10-04T07:38:49.223Z,17.8
2018-10-04T07:39:40.458Z,17.9
2018-10-04T07:40:30.502Z,17.9
2018-10-04T07:41:20.042Z,17.8
2018-10-04T07:42:12.969Z,17.8
2018-10-04T07:43:00.955Z,17.9
2018-10-04T07:43:50.482Z,17.9
2018-10-04T07:44:41.297Z,17.9
2018-10-04T07:45:30.315Z,17.9
2018-10-04T07:46:20.655Z,17.9
2018-10-04T07:47:10.262Z,17.8
2018-10-04T07:48:01.359Z,17.9
2018-10-04T07:48:51.600Z,17.8
2018-10-04T07:49:41.442Z,17.8
2018-10-04T07:50:31.161Z,17.9
2018-10-04T07:51:21.376Z,17.9
2018-10-04T07:52:11.122Z,17.9
2018-10-04T07:53:01.467Z,17.9
2018-10-04T07:53:51.726Z,17.9
2018-10-04T07:54:41.797Z,17.9
2018-10-04T07:55:31.212Z,17.9
2018-10-04T07:56:21.213Z,17.9
2018-10-04T07:57:10.969Z,17.9
2018-10-04T07:58:01.034Z,17.8
2018-10-04T07:58:51.165Z,17.9
2018-10-04T07:59:40.866Z,17.8
2018-10-04T08:00:31.786Z,17.9
2018-10-04T08:01:22.105Z,17.9
2018-10-04T08:02:12.421Z,17.9
2018-10-04T08:03:01.929Z,17.9
2018-10-04T08:03:51.671Z,17.9
2018-10-04T08:04:41.446Z,17.9
2018-10-04T08:05:32.599Z,17.9
2018-10-04T08:06:26.075Z,17.9
2018-10-04T08:07:11.649Z,17.9
2018-10-04T08:08:02.839Z,17.9
2018-10-04T08:08:52.473Z,17.9
2018-10-04T08:09:42.525Z,17.9
2018-10-04T08:10:31.933Z,17.9
2018-10-04T08:11:22.536Z,17.9
2018-10-04T08:12:12.305Z,17.9
2018-10-04T08:13:03.440Z,17.9
2018-10-04T08:13:52.743Z,17.9
2018-10-04T08:14:43.087Z,17.9
2018-10-04T08:15:33.594Z,17.9
2018-10-04T08:16:22.618Z,17.9
2018-10-04T08:17:12.678Z,17.9
2018-10-04T08:18:02.754Z,17.9
2018-10-04T08:18:53.123Z,17.9
2018-10-04T08:19:41.715Z,17.9
2018-10-04T08:20:32.954Z,17.9
2018-10-04T08:21:23.987Z,17.9
2018-10-04T08:22:13.895Z,17.9
2018-10-04T08:23:03.668Z,17.9
2018-10-04T08:23:53.292Z,17.9
2018-10-04T08:24:43.032Z,17.9
2018-10-04T08:25:33.833Z,17.9
2018-10-04T08:26:23.310Z,17.9
2018-10-04T08:27:13.716Z,17.9
2018-10-04T08:28:03.772Z,17.9
2018-10-04T08:28:54.032Z,17.9
2018-10-04T08:29:44.513Z,17.9
2018-10-04T08:30:33.969Z,17.9
2018-10-04T08:31:24.626Z,17.9
2018-10-04T08:32:13.817Z,17.9
2018-10-04T08:33:04.157Z,17.9
2018-10-04T08:33:54.493Z,17.9
2018-10-04T08:34:44.799Z,17.9
2018-10-04T08:35:35.097Z,17.9
2018-10-04T08:36:24.372Z,17.9
2018-10-04T08:37:15.031Z,17.9
2018-10-04T08:38:05.381Z,17.9
2018-10-04T08:38:54.871Z,17.9
2018-10-04T08:39:45.845Z,17.9
2018-10-04T08:40:35.021Z,17.9
2018-10-04T08:41:23.861Z,17.9
2018-10-04T08:42:15.844Z,17.9
2018-10-04T08:43:05.153Z,17.9
2018-10-04T08:43:54.395Z,17.9
2018-10-04T08:44:45.608Z,17.9
2018-10-04T08:45:35.029Z,17.9
2018-10-04T08:46:25.951Z,17.9
2018-10-04T08:47:15.152Z,17.9
2018-10-04T08:48:04.939Z,17.9
2018-10-04T08:48:55.851Z,17.9
2018-10-04T08:49:45.096Z,17.9
2018-10-04T08:50:35.923Z,17.9
2018-10-04T08:51:24.867Z,17.9
2018-10-04T08:52:15.878Z,17.9
2018-10-04T09:08:42.895Z,17.9
2018-10-04T09:09:32.430Z,17.9
2018-10-04T09:10:23.900Z,17.9
2018-10-04T09:11:13.687Z,17.9
2018-10-04T09:12:03.144Z,17.9
2018-10-04T09:12:52.332Z,17.9
2018-10-04T09:13:42.702Z,17.9
2018-10-04T09:14:33.149Z,17.9
2018-10-04T09:15:23.372Z,17.9
2018-10-04T09:16:12.885Z,17.9
2018-10-04T09:17:03.576Z,17.9
2018-10-04T09:17:54.040Z,17.9
2018-10-04T09:18:43.614Z,17.9
2018-10-04T09:19:34.471Z,17.9
2018-10-04T09:20:24.191Z,17.9
2018-10-04T09:21:14.567Z,17.9
2018-10-04T09:22:04.744Z,17.9
2018-10-04T09:22:54.679Z,17.9
2018-10-04T09:23:43.902Z,17.9
2018-10-04T09:24:35.096Z,17.9
2018-10-04T09:25:23.729Z,17.9
2018-10-04T09:26:14.545Z,17.9
2018-10-04T09:27:05.369Z,17.9
2018-10-04T09:27:53.914Z,17.9
2018-10-04T09:28:43.714Z,17.9
2018-10-04T09:29:34.352Z,17.9
2018-10-04T09:30:25.531Z,17.9
2018-10-04T09:31:15.001Z,17.9
2018-10-04T09:32:05.788Z,18
2018-10-04T09:32:54.266Z,17.9
2018-10-04T09:33:44.940Z,17.9
2018-10-04T09:34:35.360Z,17.9
2018-10-04T09:35:25.636Z,17.9
2018-10-04T09:36:15.993Z,17.9
2018-10-04T09:37:05.755Z,18
2018-10-04T09:37:55.913Z,17.9
2018-10-04T09:38:46.438Z,17.9
2018-10-04T09:39:36.325Z,17.9
2018-10-04T09:40:25.466Z,18
2018-10-04T09:41:15.925Z,17.9
2018-10-04T09:42:06.465Z,18
2018-10-04T09:42:55.257Z,17.9
2018-10-04T09:43:45.427Z,18
2018-10-04T09:44:35.545Z,18
2018-10-04T09:45:25.123Z,18
2018-10-04T09:46:16.513Z,18
2018-10-04T09:47:05.175Z,18
2018-10-04T09:47:55.595Z,17.9
2018-10-04T09:48:46.962Z,18
2018-10-04T09:49:36.730Z,18
2018-10-04T09:50:26.004Z,18
2018-10-04T09:51:16.562Z,18
2018-10-04T09:52:05.872Z,17.9
2018-10-04T09:52:55.899Z,18
2018-10-04T09:53:47.344Z,18
2018-10-04T09:54:36.593Z,18
2018-10-04T09:55:26.129Z,18
2018-10-04T09:56:15.810Z,18
2018-10-04T09:57:06.699Z,18
2018-10-04T09:57:56.017Z,18
2018-10-04T09:58:46.311Z,18
2018-10-04T09:59:37.661Z,18
2018-10-04T10:00:26.051Z,18
2018-10-04T10:01:17.371Z,18
2018-10-04T10:02:07.404Z,18
2018-10-04T10:02:57.435Z,18
2018-10-04T10:03:47.709Z,18
2018-10-04T10:04:36.087Z,18
2018-10-04T10:05:28.943Z,18
2018-10-04T10:06:17.116Z,18
2018-10-04T10:07:07.434Z,18
2018-10-04T10:07:57.563Z,18
2018-10-04T10:08:48.355Z,18
2018-10-04T10:09:37.031Z,18
2018-10-04T10:10:27.973Z,18
2018-10-04T10:11:17.416Z,18
2018-10-04T10:12:07.914Z,18
2018-10-04T10:12:58.173Z,18
2018-10-04T10:13:47.618Z,18
2018-10-04T10:14:38.301Z,18
2018-10-04T10:15:28.043Z,18.1
2018-10-04T10:16:18.633Z,18
2018-10-04T10:17:07.960Z,18
2018-10-04T10:17:58.231Z,18
2018-10-04T10:18:48.419Z,18
2018-10-04T10:19:38.645Z,18
2018-10-04T10:20:28.515Z,18
2018-10-04T10:21:18.240Z,18
2018-10-04T10:22:09.112Z,18.1
2018-10-04T10:22:58.832Z,18
2018-10-04T10:23:49.520Z,18.1
2018-10-04T10:24:39.310Z,18
2018-10-04T10:25:29.024Z,18.1
2018-10-04T10:26:17.982Z,18.1
2018-10-04T10:27:09.328Z,18.1
2018-10-04T10:27:59.349Z,18.1
2018-10-04T10:28:49.312Z,18.1
2018-10-04T10:29:39.949Z,18
2018-10-04T10:30:29.209Z,18.1
2018-10-04T10:31:20.017Z,18.1
2018-10-04T10:32:09.811Z,18.1
2018-10-04T10:32:59.744Z,18.1
2018-10-04T10:33:48.646Z,18.1
2018-10-04T10:34:42.537Z,18.1
2018-10-04T10:35:29.777Z,18.1
2018-10-04T10:36:20.519Z,18.1
2018-10-04T10:37:10.786Z,18.1
2018-10-04T10:38:00.874Z,18.1
2018-10-04T10:38:50.321Z,18.1
2018-10-04T10:39:38.683Z,18.1
2018-10-04T10:40:33.444Z,18.1
2018-10-04T10:41:20.534Z,18.1
2018-10-04T10:42:09.829Z,18.1
2018-10-04T10:42:59.596Z,18.1
2018-10-04T10:43:49.545Z,18.1
2018-10-04T10:44:40.279Z,18.1
2018-10-04T10:45:30.080Z,18.1
2018-10-04T10:46:20.914Z,18.1
2018-10-04T10:47:10.077Z,18.1
2018-10-04T10:48:00.396Z,18.1
2018-10-04T10:48:51.102Z,18.1
2018-10-04T10:49:40.907Z,18.1
2018-10-04T10:50:30.351Z,18.1
2018-10-04T10:51:21.251Z,18.1
2018-10-04T10:52:10.751Z,18.1
2018-10-04T10:53:01.709Z,18.1
2018-10-04T10:53:51.159Z,18.1
2018-10-04T10:54:40.968Z,18.1
2018-10-04T10:55:31.109Z,18.1
2018-10-04T10:56:21.113Z,18.1
2018-10-04T10:57:11.387Z,18.1
2018-10-04T10:58:01.505Z,18.1
2018-10-04T10:58:53.266Z,18.1
2018-10-04T10:59:41.325Z,18.1
2018-10-04T11:00:33.300Z,18.1
2018-10-04T11:01:23.286Z,18.1
2018-10-04T11:02:12.418Z,18.1
2018-10-04T11:03:02.203Z,18.1
2018-10-04T11:03:52.239Z,18.1
2018-10-04T11:04:41.967Z,18.1
2018-10-04T11:05:31.827Z,18.1
2018-10-04T11:06:21.243Z,18.1
2018-10-04T11:07:13.812Z,18.1
2018-10-04T11:08:01.908Z,18.1
2018-10-04T11:08:52.235Z,18.1
2018-10-04T11:09:41.807Z,18.1
2018-10-04T11:10:39.138Z,18.1
2018-10-04T11:11:24.151Z,18.1
2018-10-04T11:12:12.813Z,18.1
2018-10-04T11:13:03.102Z,18.1
2018-10-04T11:13:55.050Z,18.1
2018-10-04T11:14:43.002Z,18.1
2018-10-04T11:15:31.639Z,18.1
2018-10-04T11:16:22.555Z,18.1
2018-10-04T11:17:14.581Z,18.1
2018-10-04T11:18:05.338Z,18.1
2018-10-04T11:18:53.299Z,18.1
2018-10-04T11:19:43.692Z,18.1
2018-10-04T11:20:33.399Z,18.1
2018-10-04T11:21:24.316Z,18.1
2018-10-04T11:22:13.507Z,18.1
2018-10-04T11:23:03.927Z,18.1
2018-10-04T11:23:53.394Z,18.1
2018-10-04T11:24:44.054Z,18.1
2018-10-04T11:25:33.783Z,18.1
2018-10-04T11:26:22.986Z,18.1
2018-10-04T11:27:14.256Z,18.1
2018-10-04T11:28:02.837Z,18.1
2018-10-04T11:28:53.751Z,18.1
2018-10-04T11:29:43.384Z,18.1
2018-10-04T11:30:33.861Z,18.1
2018-10-04T11:31:23.374Z,18.1
2018-10-04T11:32:14.018Z,18.1
2018-10-04T11:33:05.428Z,18.1
2018-10-04T11:33:54.153Z,18.1
2018-10-04T11:34:43.361Z,18.1
2018-10-04T11:35:34.523Z,18.1
2018-10-04T11:36:24.163Z,18.1
2018-10-04T11:37:14.321Z,18.1
2018-10-04T11:38:04.725Z,18.1
2018-10-04T11:38:54.483Z,18.2
2018-10-04T11:39:45.443Z,18.1
2018-10-04T11:40:34.650Z,18.1
2018-10-04T11:41:25.550Z,18.1
2018-10-04T11:42:14.705Z,18.1
2018-10-04T11:43:05.183Z,18.2
2018-10-04T11:43:54.610Z,18.1
2018-10-04T11:44:44.967Z,18.1
2018-10-04T11:45:34.227Z,18.2
2018-10-04T11:46:25.353Z,18.1
2018-10-04T11:47:15.695Z,18.2
2018-10-04T11:48:05.758Z,18.2
2018-10-04T11:48:53.855Z,18.2
2018-10-04T11:49:45.594Z,18.2
2018-10-04T11:50:35.123Z,18.2
2018-10-04T11:51:25.470Z,18.2
2018-10-04T11:52:15.495Z,18.2
2018-10-04T11:53:05.262Z,18.1
2018-10-04T11:53:55.908Z,18.2
2018-10-04T11:54:48.176Z,18.2
2018-10-04T11:55:35.860Z,18.2
2018-10-04T11:56:24.987Z,18.2
2018-10-04T11:57:16.202Z,18.2
2018-10-04T11:58:05.905Z,18.2
2018-10-04T11:58:55.972Z,18.2
2018-10-04T11:59:46.031Z,18.2
2018-10-04T12:00:36.107Z,18.2
2018-10-04T12:01:28.707Z,18.2
2018-10-04T12:02:16.550Z,18.2
2018-10-04T12:03:06.322Z,18.2
2018-10-04T12:03:55.472Z,18.2
2018-10-04T12:04:46.154Z,18.2
2018-10-04T12:05:35.992Z,18.2
2018-10-04T12:06:26.895Z,18.2
2018-10-04T12:07:17.760Z,18.2
2018-10-04T12:08:06.989Z,18.2
2018-10-04T12:08:56.186Z,18.2
2018-10-04T12:09:47.087Z,18.2
2018-10-04T12:10:37.493Z,18.2
2018-10-04T12:11:26.947Z,18.2
2018-10-04T12:12:17.759Z,18.2
2018-10-04T12:13:08.292Z,18.2
2018-10-04T12:13:57.433Z,18.2
2018-10-04T12:14:47.507Z,18.2
2018-10-04T12:15:37.541Z,18.3
2018-10-04T12:16:27.892Z,18.2
2018-10-04T12:17:18.546Z,18.2
2018-10-04T12:18:06.822Z,18.2
2018-10-04T12:18:57.722Z,18.2
2018-10-04T12:19:47.510Z,18.3
2018-10-04T12:20:37.879Z,18.2
2018-10-04T12:21:28.254Z,18.3
2018-10-04T12:22:17.217Z,18.2
2018-10-04T12:23:07.496Z,18.3
2018-10-04T12:23:58.138Z,18.3
2018-10-04T12:24:49.291Z,18.3
2018-10-04T12:25:37.689Z,18.3
2018-10-04T12:26:28.042Z,18.3
2018-10-04T12:27:17.860Z,18.3
2018-10-04T12:28:07.883Z,18.3
2018-10-04T12:28:57.713Z,18.3
2018-10-04T12:29:48.578Z,18.3
2018-10-04T12:30:38.646Z,18.3
2018-10-04T12:31:30.995Z,18.3
2018-10-04T12:32:20.358Z,18.3
2018-10-04T12:33:08.578Z,18.3
2018-10-04T12:33:58.350Z,18.3
2018-10-04T12:34:48.712Z,18.3
2018-10-04T12:35:38.448Z,18.3
2018-10-04T12:36:29.177Z,18.3
2018-10-04T12:37:19.239Z,18.3
2018-10-04T12:38:11.365Z,18.3
2018-10-04T12:38:58.662Z,18.3
2018-10-04T12:39:48.587Z,18.3
2018-10-04T12:40:38.940Z,18.3